createdAt,value
2018-08-11T00:00:49.387Z,27.1
2018-08-11T00:01:50.781Z,27.1
2018-08-11T00:02:52.159Z,27.2
2018-08-11T00:03:53.532Z,27.1
2018-08-11T00:04:54.907Z,27.1
2018-08-11T00:05:56.287Z,27.1
2018-08-11T00:06:57.703Z,27.1
2018-08-11T00:07:59.071Z,27.0
2018-08-11T00:09:00.458Z,27.1
2018-08-11T00:10:01.844Z,27.1
2018-08-11T00:11:03.239Z,27.1
2018-08-11T00:12:05.446Z,27.2
2018-08-11T00:13:05.983Z,27.1
2018-08-11T00:14:07.382Z,27.1
2018-08-11T00:15:08.818Z,27.2
2018-08-11T00:16:10.479Z,27.2
2018-08-11T00:17:13.459Z,27.2
2018-08-11T00:18:14.050Z,27.2
2018-08-11T00:19:15.435Z,27.1
2018-08-11T00:20:16.829Z,27.2
2018-08-11T00:21:18.218Z,27.2
2018-08-11T00:22:19.595Z,27.3
2018-08-11T00:23:20.988Z,27.2
2018-08-11T00:24:22.365Z,27.3
2018-08-11T00:25:23.749Z,27.3
2018-08-11T00:26:25.132Z,27.3
2018-08-11T00:27:26.522Z,27.3
2018-08-11T00:28:27.915Z,27.3
2018-08-11T00:29:29.305Z,27.3
2018-08-11T00:30:30.687Z,27.3
2018-08-11T00:31:32.069Z,27.3
2018-08-11T00:32:33.465Z,27.3
2018-08-11T00:33:34.843Z,27.3
2018-08-11T00:34:36.221Z,27.3
2018-08-11T00:35:37.597Z,27.3
2018-08-11T00:36:38.971Z,27.3
2018-08-11T00:37:40.365Z,27.3
2018-08-11T00:38:41.751Z,27.3
2018-08-11T00:39:43.139Z,27.4
2018-08-11T00:40:44.534Z,27.3
2018-08-11T00:41:45.930Z,27.2
2018-08-11T00:42:47.320Z,27.3
2018-08-11T00:43:48.699Z,27.3
2018-08-11T00:44:50.084Z,27.2
2018-08-11T00:45:51.517Z,27.3
2018-08-11T00:46:52.921Z,27.3
2018-08-11T00:47:54.331Z,27.4
2018-08-11T00:48:55.712Z,27.3
2018-08-11T00:49:57.100Z,27.3
2018-08-11T00:50:58.497Z,27.4
2018-08-11T00:51:59.890Z,27.3
2018-08-11T00:53:01.292Z,27.3
2018-08-11T00:54:02.714Z,27.2
2018-08-11T00:55:04.095Z,27.4
2018-08-11T00:56:05.487Z,27.4
2018-08-11T00:57:06.864Z,27.3
2018-08-11T00:58:08.245Z,27.4
2018-08-11T00:59:09.637Z,27.3
2018-08-11T01:00:11.033Z,27.3
2018-08-11T01:01:12.418Z,27.3
2018-08-11T01:02:13.812Z,27.4
2018-08-11T01:03:15.193Z,27.3
2018-08-11T01:04:16.638Z,27.3
2018-08-11T01:05:18.034Z,27.4
2018-08-11T01:06:19.430Z,27.4
2018-08-11T01:07:20.822Z,27.4
2018-08-11T01:08:22.196Z,27.4
2018-08-11T01:09:23.576Z,27.4
2018-08-11T01:10:24.957Z,27.4
2018-08-11T01:11:26.353Z,27.4
2018-08-11T01:12:27.735Z,27.4
2018-08-11T01:13:29.188Z,27.4
2018-08-11T01:14:30.606Z,27.4
2018-08-11T01:15:31.996Z,27.4
2018-08-11T01:16:33.411Z,27.4
2018-08-11T01:17:34.802Z,27.4
2018-08-11T01:18:36.188Z,27.4
2018-08-11T01:19:37.551Z,27.4
2018-08-11T01:20:38.933Z,27.4
2018-08-11T01:21:40.310Z,27.4
2018-08-11T01:22:41.703Z,27.4
2018-08-11T01:23:43.091Z,27.4
2018-08-11T01:24:44.489Z,27.4
2018-08-11T01:25:45.878Z,27.4
2018-08-11T01:26:47.255Z,27.4
2018-08-11T01:27:48.647Z,27.4
2018-08-11T01:28:50.035Z,27.4
2018-08-11T01:29:51.423Z,27.4
2018-08-11T01:30:52.804Z,27.4
2018-08-11T01:31:54.183Z,27.3
2018-08-11T01:32:55.577Z,27.4
2018-08-11T01:33:56.974Z,27.3
2018-08-11T01:34:58.369Z,27.4
2018-08-11T01:35:59.757Z,27.5
2018-08-11T01:37:01.181Z,27.4
2018-08-11T01:38:02.589Z,27.4
2018-08-11T01:39:03.998Z,27.4
2018-08-11T01:40:05.380Z,27.4
2018-08-11T01:41:06.790Z,27.4
2018-08-11T01:42:08.182Z,27.5
2018-08-11T01:43:09.579Z,27.5
2018-08-11T01:44:10.971Z,27.5
2018-08-11T01:45:12.350Z,27.4
2018-08-11T01:46:13.766Z,27.4
2018-08-11T01:47:15.157Z,27.5
2018-08-11T01:48:16.549Z,27.5
2018-08-11T01:49:17.970Z,27.5
2018-08-11T01:50:19.363Z,27.5
2018-08-11T01:51:20.786Z,27.5
2018-08-11T01:52:22.194Z,27.5
2018-08-11T01:53:23.629Z,27.5
2018-08-11T01:54:24.974Z,27.4
2018-08-11T01:55:26.403Z,27.4
2018-08-11T01:56:28.345Z,27.5
2018-08-11T01:57:29.737Z,27.5
2018-08-11T01:58:31.120Z,27.4
2018-08-11T01:59:32.488Z,27.5
2018-08-11T02:00:33.876Z,27.5
2018-08-11T02:01:35.420Z,27.5
2018-08-11T02:02:36.807Z,27.5
2018-08-11T02:03:38.199Z,27.5
2018-08-11T02:04:39.589Z,27.5
2018-08-11T02:05:40.969Z,27.4
2018-08-11T02:06:42.355Z,27.5
2018-08-11T02:07:43.735Z,27.5
2018-08-11T02:08:45.114Z,27.5
2018-08-11T02:09:46.555Z,27.5
2018-08-11T02:10:47.987Z,27.5
2018-08-11T02:11:49.367Z,27.5
2018-08-11T02:12:50.785Z,27.5
2018-08-11T02:13:52.164Z,27.5
2018-08-11T02:14:53.576Z,27.5
2018-08-11T02:15:54.968Z,27.5
2018-08-11T02:16:56.383Z,27.5
2018-08-11T02:17:57.841Z,27.4
2018-08-11T02:18:59.221Z,27.5
2018-08-11T02:20:00.611Z,27.5
2018-08-11T02:21:02.018Z,27.4
2018-08-11T02:22:03.398Z,27.5
2018-08-11T02:23:04.820Z,27.5
2018-08-11T02:24:06.198Z,27.5
2018-08-11T02:25:07.596Z,27.5
2018-08-11T02:26:09.067Z,27.5
2018-08-11T02:27:10.454Z,27.5
2018-08-11T02:28:11.933Z,27.5
2018-08-11T02:29:13.286Z,27.5
2018-08-11T02:30:14.667Z,27.5
2018-08-11T02:31:16.057Z,27.5
2018-08-11T02:32:17.440Z,27.5
2018-08-11T02:33:18.836Z,27.5
2018-08-11T02:34:20.292Z,27.5
2018-08-11T02:35:21.551Z,27.5
2018-08-11T02:36:22.940Z,27.5
2018-08-11T02:37:24.333Z,27.4
2018-08-11T02:38:25.791Z,27.5
2018-08-11T02:39:27.134Z,27.5
2018-08-11T02:40:28.522Z,27.4
2018-08-11T02:41:29.903Z,27.5
2018-08-11T02:42:31.300Z,27.5
2018-08-11T02:43:32.724Z,27.5
2018-08-11T02:44:34.109Z,27.6
2018-08-11T02:45:35.486Z,27.5
2018-08-11T02:46:36.898Z,27.5
2018-08-11T02:47:38.299Z,27.5
2018-08-11T02:48:39.703Z,27.5
2018-08-11T02:49:41.103Z,27.5
2018-08-11T02:50:42.483Z,27.5
2018-08-11T02:51:43.877Z,27.5
2018-08-11T02:52:45.346Z,27.5
2018-08-11T02:53:46.733Z,27.5
2018-08-11T02:54:48.110Z,27.5
2018-08-11T02:55:49.500Z,27.5
2018-08-11T02:56:50.890Z,27.5
2018-08-11T02:57:52.301Z,27.5
2018-08-11T02:58:53.690Z,27.6
2018-08-11T02:59:55.199Z,27.6
2018-08-11T03:00:56.599Z,27.6
2018-08-11T03:01:57.975Z,27.5
2018-08-11T03:02:59.364Z,27.5
2018-08-11T03:04:01.424Z,27.5
2018-08-11T03:05:02.814Z,27.6
2018-08-11T03:06:04.222Z,27.5
2018-08-11T03:07:05.612Z,27.5
2018-08-11T03:08:07.059Z,27.5
2018-08-11T03:09:08.437Z,27.5
2018-08-11T03:10:09.833Z,27.5
2018-08-11T03:11:11.213Z,27.5
2018-08-11T03:12:12.624Z,27.5
2018-08-11T03:13:14.002Z,27.6
2018-08-11T03:14:15.393Z,27.5
2018-08-11T03:15:16.786Z,27.6
2018-08-11T03:16:18.183Z,27.5
2018-08-11T03:17:19.593Z,27.5
2018-08-11T03:18:20.974Z,27.5
2018-08-11T03:19:22.385Z,27.5
2018-08-11T03:20:23.929Z,27.5
2018-08-11T03:21:25.329Z,27.6
2018-08-11T03:22:26.730Z,27.5
2018-08-11T03:23:28.118Z,27.6
2018-08-11T03:24:29.525Z,27.5
2018-08-11T03:25:30.916Z,27.5
2018-08-11T03:26:32.306Z,27.5
2018-08-11T03:27:33.681Z,27.5
2018-08-11T03:28:35.070Z,27.5
2018-08-11T03:29:36.453Z,27.5
2018-08-11T03:30:37.892Z,27.5
2018-08-11T03:31:39.397Z,27.5
2018-08-11T03:32:40.789Z,27.5
2018-08-11T03:33:42.186Z,27.5
2018-08-11T03:34:43.607Z,27.4
2018-08-11T03:35:44.989Z,27.6
2018-08-11T03:36:46.377Z,27.5
2018-08-11T03:37:47.758Z,27.5
2018-08-11T03:38:49.157Z,27.5
2018-08-11T03:39:50.523Z,27.6
2018-08-11T03:40:51.916Z,27.4
2018-08-11T03:41:53.363Z,27.6
2018-08-11T03:42:54.776Z,27.5
2018-08-11T03:43:56.172Z,27.5
2018-08-11T03:44:57.547Z,27.5
2018-08-11T03:45:58.952Z,27.5
2018-08-11T03:47:00.342Z,27.6
2018-08-11T03:48:01.709Z,27.5
2018-08-11T03:49:03.110Z,27.5
2018-08-11T03:50:04.516Z,27.5
2018-08-11T03:51:05.932Z,27.5
2018-08-11T03:52:07.328Z,27.5
2018-08-11T03:53:08.752Z,27.6
2018-08-11T03:54:10.127Z,27.5
2018-08-11T03:55:11.507Z,27.5
2018-08-11T03:56:12.904Z,27.5
2018-08-11T03:57:14.295Z,27.5
2018-08-11T03:58:15.675Z,27.5
2018-08-11T03:59:17.084Z,27.5
2018-08-11T04:00:18.492Z,27.4
2018-08-11T04:01:19.884Z,27.5
2018-08-11T04:02:21.296Z,27.5
2018-08-11T04:03:22.665Z,27.5
2018-08-11T04:04:24.064Z,27.5
2018-08-11T04:05:25.442Z,27.5
2018-08-11T04:06:26.828Z,27.5
2018-08-11T04:07:28.239Z,27.5
2018-08-11T04:08:29.616Z,27.5
2018-08-11T04:09:31.015Z,27.6
2018-08-11T04:10:32.400Z,27.5
2018-08-11T04:11:33.789Z,27.5
2018-08-11T04:12:35.204Z,27.5
2018-08-11T04:13:36.603Z,27.5
2018-08-11T04:14:38.001Z,27.5
2018-08-11T04:15:39.378Z,27.5
2018-08-11T04:16:40.750Z,27.5
2018-08-11T04:17:42.133Z,27.5
2018-08-11T04:18:43.508Z,27.6
2018-08-11T04:19:44.918Z,27.4
2018-08-11T04:20:46.295Z,27.5
2018-08-11T04:21:47.680Z,27.5
2018-08-11T04:22:49.074Z,27.5
2018-08-11T04:23:50.482Z,27.4
2018-08-11T04:24:51.893Z,27.4
2018-08-11T04:25:53.286Z,27.4
2018-08-11T04:26:54.673Z,27.5
2018-08-11T04:27:56.066Z,27.4
2018-08-11T04:28:57.446Z,27.5
2018-08-11T04:29:58.841Z,27.5
2018-08-11T04:31:00.220Z,27.5
2018-08-11T04:32:01.614Z,27.5
2018-08-11T04:33:02.994Z,27.5
2018-08-11T04:34:04.457Z,27.5
2018-08-11T04:35:05.783Z,27.5
2018-08-11T04:36:07.190Z,27.4
2018-08-11T04:37:08.572Z,27.5
2018-08-11T04:38:09.958Z,27.5
2018-08-11T04:39:11.349Z,27.5
2018-08-11T04:40:12.758Z,27.5
2018-08-11T04:41:14.141Z,27.5
2018-08-11T04:42:15.537Z,27.5
2018-08-11T04:43:16.914Z,27.4
2018-08-11T04:44:18.295Z,27.5
2018-08-11T04:45:19.689Z,27.4
2018-08-11T04:46:21.073Z,27.4
2018-08-11T04:47:22.463Z,27.5
2018-08-11T04:48:23.858Z,27.5
2018-08-11T04:49:25.243Z,27.5
2018-08-11T04:50:26.630Z,27.5
2018-08-11T04:51:28.023Z,27.4
2018-08-11T04:52:29.414Z,27.5
2018-08-11T04:53:30.864Z,27.4
2018-08-11T04:54:32.260Z,27.5
2018-08-11T04:55:33.658Z,27.5
2018-08-11T04:56:35.043Z,27.5
2018-08-11T04:57:36.426Z,27.4
2018-08-11T04:58:37.816Z,27.5
2018-08-11T04:59:39.198Z,27.4
2018-08-11T05:00:40.595Z,27.5
2018-08-11T05:01:41.995Z,27.5
2018-08-11T05:02:43.387Z,27.5
2018-08-11T05:03:44.774Z,27.4
2018-08-11T05:04:46.189Z,27.4
2018-08-11T05:05:47.562Z,27.5
2018-08-11T05:06:48.950Z,27.5
2018-08-11T05:07:50.347Z,27.5
2018-08-11T05:08:51.730Z,27.5
2018-08-11T05:09:53.143Z,27.5
2018-08-11T05:10:54.527Z,27.6
2018-08-11T05:11:55.908Z,27.5
2018-08-11T05:12:57.298Z,27.5
2018-08-11T05:13:58.676Z,27.5
2018-08-11T05:15:00.073Z,27.5
2018-08-11T05:16:01.497Z,27.6
2018-08-11T05:17:02.881Z,27.6
2018-08-11T05:18:04.707Z,27.5
2018-08-11T05:19:06.078Z,27.5
2018-08-11T05:20:07.461Z,27.5
2018-08-11T05:21:08.844Z,27.5
2018-08-11T05:22:10.244Z,27.5
2018-08-11T05:23:11.673Z,27.5
2018-08-11T05:24:13.075Z,27.5
2018-08-11T05:25:15.003Z,27.5
2018-08-11T05:26:16.437Z,27.5
2018-08-11T05:27:17.788Z,27.5
2018-08-11T05:28:19.199Z,27.6
2018-08-11T05:29:20.592Z,27.5
2018-08-11T05:30:21.992Z,27.5
2018-08-11T05:31:23.381Z,27.5
2018-08-11T05:32:24.771Z,27.5
2018-08-11T05:33:26.175Z,27.6
2018-08-11T05:34:27.562Z,27.6
2018-08-11T05:35:28.952Z,27.5
2018-08-11T05:36:30.338Z,27.5
2018-08-11T05:37:31.786Z,27.6
2018-08-11T05:38:33.186Z,27.6
2018-08-11T05:39:34.583Z,27.5
2018-08-11T05:40:36.013Z,27.4
2018-08-11T05:41:37.411Z,27.5
2018-08-11T05:42:38.807Z,27.5
2018-08-11T05:43:40.196Z,27.5
2018-08-11T05:44:41.580Z,27.5
2018-08-11T05:45:42.979Z,27.5
2018-08-11T05:46:44.373Z,27.6
2018-08-11T05:47:45.759Z,27.5
2018-08-11T05:48:47.144Z,27.6
2018-08-11T05:49:48.542Z,27.6
2018-08-11T05:50:49.939Z,27.5
2018-08-11T05:51:51.331Z,27.6
2018-08-11T05:52:52.730Z,27.5
2018-08-11T05:53:54.116Z,27.5
2018-08-11T05:54:55.517Z,27.5
2018-08-11T05:55:56.910Z,27.6
2018-08-11T05:56:58.304Z,27.5
2018-08-11T05:57:59.697Z,27.5
2018-08-11T05:59:01.077Z,27.6
2018-08-11T06:00:02.470Z,27.6
2018-08-11T06:01:03.857Z,27.7
2018-08-11T06:02:05.250Z,27.6
2018-08-11T06:03:06.644Z,27.6
2018-08-11T06:04:08.197Z,27.6
2018-08-11T06:05:09.412Z,27.5
2018-08-11T06:06:10.809Z,27.6
2018-08-11T06:07:12.191Z,27.6
2018-08-11T06:08:13.569Z,27.6
2018-08-11T06:09:14.958Z,27.6
2018-08-11T06:10:16.355Z,27.5
2018-08-11T06:11:17.765Z,27.5
2018-08-11T06:12:19.170Z,27.5
2018-08-11T06:13:20.558Z,27.6
2018-08-11T06:14:21.955Z,27.6
2018-08-11T06:15:23.345Z,27.5
2018-08-11T06:16:24.743Z,27.6
2018-08-11T06:17:26.185Z,27.6
2018-08-11T06:18:27.561Z,27.5
2018-08-11T06:19:28.945Z,27.5
2018-08-11T06:20:30.322Z,27.6
2018-08-11T06:21:31.724Z,27.6
2018-08-11T06:22:33.132Z,27.6
2018-08-11T06:23:34.528Z,27.5
2018-08-11T06:24:35.911Z,27.6
2018-08-11T06:25:37.287Z,27.6
2018-08-11T06:26:38.668Z,27.6
2018-08-11T06:27:40.064Z,27.6
2018-08-11T06:28:41.459Z,27.6
2018-08-11T06:29:42.852Z,27.7
2018-08-11T06:30:44.268Z,27.6
2018-08-11T06:31:45.687Z,27.6
2018-08-11T06:32:47.058Z,27.6
2018-08-11T06:33:48.462Z,27.6
2018-08-11T06:34:49.855Z,27.6
2018-08-11T06:35:51.239Z,27.7
2018-08-11T06:36:52.624Z,27.8
2018-08-11T06:37:54.016Z,27.7
2018-08-11T06:38:55.398Z,27.7
2018-08-11T06:39:56.793Z,27.7
2018-08-11T06:40:58.304Z,27.6
2018-08-11T06:41:59.596Z,27.6
2018-08-11T06:43:00.990Z,27.7
2018-08-11T06:44:02.365Z,27.6
2018-08-11T06:45:03.764Z,27.7
2018-08-11T06:46:05.181Z,27.7
2018-08-11T06:47:06.663Z,27.7
2018-08-11T06:48:07.969Z,27.8
2018-08-11T06:49:09.367Z,27.7
2018-08-11T06:50:10.750Z,27.8
2018-08-11T06:51:12.154Z,27.6
2018-08-11T06:52:13.559Z,27.8
2018-08-11T06:53:14.946Z,27.7
2018-08-11T06:54:16.340Z,27.6
2018-08-11T06:55:17.757Z,27.8
2018-08-11T06:56:19.171Z,27.7
2018-08-11T06:57:20.562Z,27.7
2018-08-11T06:58:21.961Z,27.7
2018-08-11T06:59:23.392Z,27.7
2018-08-11T07:00:24.765Z,27.7
2018-08-11T07:01:26.155Z,27.7
2018-08-11T07:02:27.558Z,27.8
2018-08-11T07:03:28.955Z,27.8
2018-08-11T07:04:30.355Z,27.7
2018-08-11T07:05:31.766Z,27.8
2018-08-11T07:06:33.184Z,27.8
2018-08-11T07:07:34.520Z,27.7
2018-08-11T07:08:35.913Z,27.8
2018-08-11T07:09:37.340Z,28.0
2018-08-11T07:10:38.733Z,27.9
2018-08-11T07:11:40.182Z,27.9
2018-08-11T07:12:41.571Z,27.9
2018-08-11T07:13:42.972Z,28.0
2018-08-11T07:14:44.362Z,28.0
2018-08-11T07:15:45.753Z,27.9
2018-08-11T07:16:47.148Z,27.9
2018-08-11T07:17:48.580Z,28.0
2018-08-11T07:18:49.965Z,28.0
2018-08-11T07:19:51.365Z,28.0
2018-08-11T07:20:52.762Z,28.0
2018-08-11T07:21:54.154Z,28.0
2018-08-11T07:22:55.541Z,28.0
2018-08-11T07:23:56.929Z,28.1
2018-08-11T07:24:58.323Z,28.0
2018-08-11T07:25:59.724Z,28.0
2018-08-11T07:27:01.099Z,28.0
2018-08-11T07:28:02.500Z,28.0
2018-08-11T07:29:04.033Z,28.0
2018-08-11T07:30:05.432Z,28.0
2018-08-11T07:31:06.810Z,28.0
2018-08-11T07:32:08.232Z,28.2
2018-08-11T07:33:09.654Z,28.1
2018-08-11T07:34:11.205Z,28.1
2018-08-11T07:35:12.767Z,28.0
2018-08-11T07:36:14.179Z,28.0
2018-08-11T07:37:15.548Z,28.0
2018-08-11T07:38:16.943Z,28.0
2018-08-11T07:39:18.357Z,28.0
2018-08-11T07:40:19.732Z,28.0
2018-08-11T07:41:21.129Z,28.1
2018-08-11T07:42:22.559Z,28.1
2018-08-11T07:43:23.981Z,28.1
2018-08-11T07:44:25.297Z,28.1
2018-08-11T07:45:26.765Z,28.1
2018-08-11T07:46:28.163Z,28.1
2018-08-11T07:47:29.566Z,28.1
2018-08-11T07:48:30.962Z,28.1
2018-08-11T07:49:32.353Z,28.2
2018-08-11T07:50:33.733Z,28.2
2018-08-11T07:51:35.131Z,28.2
2018-08-11T07:52:36.727Z,28.1
2018-08-11T07:53:38.120Z,28.2
2018-08-11T07:54:39.967Z,28.3
2018-08-11T07:55:41.431Z,28.2
2018-08-11T07:56:42.973Z,28.2
2018-08-11T07:57:44.532Z,28.2
2018-08-11T07:58:45.817Z,28.2
2018-08-11T07:59:47.205Z,28.2
2018-08-11T08:00:48.613Z,28.2
2018-08-11T08:01:50.019Z,28.3
2018-08-11T08:02:51.418Z,28.3
2018-08-11T08:03:52.817Z,28.3
2018-08-11T08:04:54.209Z,28.3
2018-08-11T08:05:55.603Z,28.2
2018-08-11T08:06:56.997Z,28.3
2018-08-11T08:07:58.424Z,28.3
2018-08-11T08:08:59.799Z,28.3
2018-08-11T08:10:01.192Z,28.3
2018-08-11T08:11:02.598Z,28.3
2018-08-11T08:12:03.994Z,28.3
2018-08-11T08:13:05.393Z,28.3
2018-08-11T08:14:06.820Z,28.3
2018-08-11T08:15:08.223Z,28.4
2018-08-11T08:16:09.624Z,28.3
2018-08-11T08:17:11.010Z,28.2
2018-08-11T08:18:12.401Z,28.5
2018-08-11T08:19:13.787Z,28.3
2018-08-11T08:20:15.161Z,28.3
2018-08-11T08:21:16.540Z,28.4
2018-08-11T08:22:17.938Z,28.4
2018-08-11T08:23:19.340Z,28.4
2018-08-11T08:24:21.353Z,28.4
2018-08-11T08:25:22.751Z,28.4
2018-08-11T08:26:24.278Z,28.4
2018-08-11T08:27:25.531Z,28.4
2018-08-11T08:28:26.921Z,28.4
2018-08-11T08:29:28.306Z,28.5
2018-08-11T08:30:29.733Z,28.5
2018-08-11T08:31:31.183Z,28.5
2018-08-11T08:32:32.542Z,28.5
2018-08-11T08:33:33.938Z,28.6
2018-08-11T08:34:35.367Z,28.5
2018-08-11T08:35:36.748Z,28.6
2018-08-11T08:36:38.174Z,28.6
2018-08-11T08:37:39.587Z,28.7
2018-08-11T08:38:40.982Z,28.6
2018-08-11T08:39:42.373Z,28.6
2018-08-11T08:40:43.779Z,28.6
2018-08-11T08:41:45.239Z,28.7
2018-08-11T08:42:46.637Z,28.7
2018-08-11T08:43:48.043Z,28.7
2018-08-11T08:44:49.431Z,28.7
2018-08-11T08:45:50.881Z,28.6
2018-08-11T08:46:52.274Z,28.7
2018-08-11T08:47:53.692Z,28.7
2018-08-11T08:48:55.090Z,28.7
2018-08-11T08:49:56.484Z,28.7
2018-08-11T08:50:57.882Z,28.7
2018-08-11T08:51:59.276Z,28.7
2018-08-11T08:53:00.678Z,28.8
2018-08-11T08:54:02.074Z,28.7
2018-08-11T08:55:03.475Z,28.7
2018-08-11T08:56:04.872Z,28.8
2018-08-11T08:57:06.266Z,28.8
2018-08-11T08:58:07.662Z,28.8
2018-08-11T08:59:09.129Z,28.7
2018-08-11T09:00:10.469Z,28.8
2018-08-11T09:01:11.866Z,28.7
2018-08-11T09:02:13.282Z,28.7
2018-08-11T09:03:14.687Z,28.7
2018-08-11T09:04:16.067Z,28.7
2018-08-11T09:05:17.517Z,28.8
2018-08-11T09:06:18.914Z,28.6
2018-08-11T09:07:20.342Z,28.5
2018-08-11T09:08:21.731Z,28.4
2018-08-11T09:09:23.121Z,28.5
2018-08-11T09:10:24.516Z,28.5
2018-08-11T09:11:25.916Z,28.6
2018-08-11T09:12:27.319Z,28.6
2018-08-11T09:13:28.736Z,28.5
2018-08-11T09:14:30.130Z,28.6
2018-08-11T09:15:31.526Z,28.5
2018-08-11T09:16:32.922Z,28.4
2018-08-11T09:17:34.333Z,28.5
2018-08-11T09:18:35.789Z,28.6
2018-08-11T09:19:37.183Z,28.5
2018-08-11T09:20:38.568Z,28.5
2018-08-11T09:21:39.965Z,28.5
2018-08-11T09:22:41.372Z,28.4
2018-08-11T09:23:42.777Z,28.3
2018-08-11T09:24:44.165Z,28.3
2018-08-11T09:25:45.551Z,28.2
2018-08-11T09:26:48.378Z,28.3
2018-08-11T09:27:51.353Z,28.3
2018-08-11T09:28:52.738Z,28.3
2018-08-11T09:29:54.120Z,28.3
2018-08-11T09:30:55.497Z,28.3
2018-08-11T09:31:56.880Z,28.4
2018-08-11T09:32:58.260Z,28.2
2018-08-11T09:33:59.661Z,28.1
2018-08-11T09:35:01.054Z,28.1
2018-08-11T09:36:02.443Z,28.0
2018-08-11T09:37:03.834Z,28.0
2018-08-11T09:38:05.222Z,27.9
2018-08-11T09:39:06.630Z,28.0
2018-08-11T09:40:08.695Z,27.9
2018-08-11T09:41:10.074Z,28.0
2018-08-11T09:42:11.448Z,27.9
2018-08-11T09:43:12.865Z,27.9
2018-08-11T09:44:14.255Z,27.9
2018-08-11T09:45:15.644Z,27.9
2018-08-11T09:46:17.021Z,27.9
2018-08-11T09:47:18.392Z,27.9
2018-08-11T09:48:19.803Z,27.9
2018-08-11T09:49:21.192Z,27.9
2018-08-11T09:50:22.585Z,28.0
2018-08-11T09:51:23.977Z,28.0
2018-08-11T09:52:25.363Z,28.0
2018-08-11T09:53:26.749Z,27.9
2018-08-11T09:54:28.138Z,27.8
2018-08-11T09:55:30.308Z,28.0
2018-08-11T09:56:31.697Z,28.0
2018-08-11T09:57:33.092Z,27.8
2018-08-11T09:58:34.504Z,27.9
2018-08-11T09:59:35.865Z,27.9
2018-08-11T10:00:37.269Z,28.0
2018-08-11T10:01:38.652Z,27.9
2018-08-11T10:02:40.058Z,27.9
2018-08-11T10:03:41.489Z,27.8
2018-08-11T10:04:42.907Z,27.7
2018-08-11T10:05:44.307Z,27.8
2018-08-11T10:06:45.726Z,27.7
2018-08-11T10:07:47.140Z,27.8
2018-08-11T10:08:49.493Z,27.8
2018-08-11T10:09:50.963Z,27.7
2018-08-11T10:10:52.368Z,27.8
2018-08-11T10:11:53.752Z,28.0
2018-08-11T10:12:55.172Z,27.8
2018-08-11T10:13:56.596Z,28.0
2018-08-11T10:14:58.021Z,28.0
2018-08-11T10:15:59.421Z,28.0
2018-08-11T10:17:00.822Z,28.1
2018-08-11T10:18:02.269Z,28.0
2018-08-11T10:19:03.649Z,28.0
2018-08-11T10:20:05.263Z,28.0
2018-08-11T10:21:06.709Z,27.9
2018-08-11T10:22:08.123Z,28.0
2018-08-11T10:23:09.528Z,27.9
2018-08-11T10:24:10.914Z,28.0
2018-08-11T10:25:12.327Z,28.0
2018-08-11T10:26:13.719Z,28.0
2018-08-11T10:27:15.111Z,28.0
2018-08-11T10:28:16.487Z,28.0
2018-08-11T10:29:17.877Z,28.0
2018-08-11T10:30:19.277Z,28.0
2018-08-11T10:31:20.688Z,28.0
2018-08-11T10:32:22.077Z,28.1
2018-08-11T10:33:23.488Z,28.1
2018-08-11T10:34:24.986Z,28.1
2018-08-11T10:35:26.404Z,28.1
2018-08-11T10:36:27.836Z,28.0
2018-08-11T10:37:29.251Z,28.0
2018-08-11T10:38:30.641Z,28.1
2018-08-11T10:39:32.067Z,28.2
2018-08-11T10:40:33.459Z,28.2
2018-08-11T10:41:34.946Z,28.2
2018-08-11T10:42:37.900Z,28.3
2018-08-11T10:43:39.301Z,28.2
2018-08-11T10:44:40.709Z,28.3
2018-08-11T10:45:43.203Z,28.3
2018-08-11T10:46:44.687Z,28.2
2018-08-11T10:47:46.112Z,28.4
2018-08-11T10:48:47.511Z,28.3
2018-08-11T10:49:48.907Z,28.5
2018-08-11T10:50:50.298Z,28.4
2018-08-11T10:51:51.673Z,28.5
2018-08-11T10:52:53.068Z,28.4
2018-08-11T10:53:54.480Z,28.4
2018-08-11T10:54:55.868Z,28.3
2018-08-11T10:55:57.350Z,28.3
2018-08-11T10:56:58.804Z,28.3
2018-08-11T10:58:03.418Z,28.2
2018-08-11T10:59:06.386Z,28.3
2018-08-11T11:00:08.798Z,28.3
2018-08-11T11:01:10.620Z,28.4
2018-08-11T11:02:12.106Z,28.3
2018-08-11T11:03:13.641Z,28.3
2018-08-11T11:04:15.304Z,28.2
2018-08-11T11:06:18.515Z,28.2
2018-08-11T11:07:20.065Z,28.2
2018-08-11T11:08:22.127Z,28.3
2018-08-11T11:09:23.535Z,28.3
2018-08-11T11:10:25.391Z,28.3
2018-08-11T11:11:28.230Z,28.2
2018-08-11T11:13:10.601Z,28.1
2018-08-11T11:14:12.025Z,28.1
2018-08-11T11:15:13.408Z,28.1
2018-08-11T11:16:14.870Z,28.0
2018-08-11T11:17:16.276Z,28.1
2018-08-11T11:18:17.678Z,28.0
2018-08-11T11:19:19.074Z,28.0
2018-08-11T11:20:20.479Z,28.0
2018-08-11T11:21:21.893Z,28.0
2018-08-11T11:22:23.284Z,28.0
2018-08-11T11:23:24.660Z,28.1
2018-08-11T11:24:26.037Z,28.2
2018-08-11T11:25:27.569Z,28.1
2018-08-11T11:26:29.710Z,28.1
2018-08-11T11:27:31.915Z,28.1
2018-08-11T11:28:33.318Z,28.1
2018-08-11T11:30:39.357Z,28.0
2018-08-11T11:31:42.780Z,28.1
2018-08-11T11:32:46.180Z,28.1
2018-08-11T11:33:48.304Z,28.0
2018-08-11T11:34:50.425Z,28.0
2018-08-11T11:35:52.496Z,28.1
2018-08-11T11:37:33.414Z,28.0
2018-08-11T11:38:34.799Z,28.0
2018-08-11T11:39:56.821Z,28.1
2018-08-11T11:40:58.210Z,28.0
2018-08-11T11:41:59.631Z,28.0
2018-08-11T11:43:01.089Z,28.0
2018-08-11T11:44:02.489Z,28.1
2018-08-11T11:45:03.937Z,28.1
2018-08-11T11:46:05.325Z,28.2
2018-08-11T11:47:06.786Z,28.2
2018-08-11T11:48:08.163Z,28.2
2018-08-11T11:49:09.569Z,28.1
2018-08-11T11:50:11.780Z,28.2
2018-08-11T11:51:13.156Z,28.2
2018-08-11T11:52:14.539Z,28.3
2018-08-11T11:53:15.953Z,28.2
2018-08-11T11:54:17.377Z,28.1
2018-08-11T11:55:20.750Z,28.0
2018-08-11T11:56:22.209Z,28.0
2018-08-11T11:57:23.624Z,28.2
2018-08-11T11:58:25.061Z,28.1
2018-08-11T11:59:26.488Z,28.1
2018-08-11T12:00:27.946Z,28.1
2018-08-11T12:01:29.394Z,28.0
2018-08-11T12:02:30.844Z,28.0
2018-08-11T12:03:32.580Z,27.9
2018-08-11T12:04:34.956Z,28.0
2018-08-11T12:05:37.855Z,27.9
2018-08-11T12:06:39.245Z,28.0
2018-08-11T12:07:40.921Z,28.1
2018-08-11T12:08:43.298Z,28.1
2018-08-11T12:09:44.618Z,28.1
2018-08-11T12:10:46.016Z,28.1
2018-08-11T12:11:47.424Z,27.9
2018-08-11T12:12:48.796Z,28.0
2018-08-11T12:13:50.251Z,27.9
2018-08-11T12:14:52.010Z,28.0
2018-08-11T12:15:53.360Z,28.0
2018-08-11T12:16:54.750Z,28.0
2018-08-11T12:17:56.136Z,27.9
2018-08-11T12:18:57.539Z,28.0
2018-08-11T12:19:58.941Z,28.0
2018-08-11T12:21:00.342Z,28.1
2018-08-11T12:22:01.746Z,28.0
2018-08-11T12:23:03.889Z,28.1
2018-08-11T12:24:05.390Z,28.1
2018-08-11T12:25:06.781Z,28.1
2018-08-11T12:26:08.258Z,28.1
2018-08-11T12:27:09.641Z,28.1
2018-08-11T12:28:11.040Z,28.0
2018-08-11T12:29:12.439Z,28.0
2018-08-11T12:30:13.839Z,27.9
2018-08-11T12:31:15.284Z,27.9
2018-08-11T12:32:16.679Z,27.9
2018-08-11T12:33:18.092Z,27.9
2018-08-11T12:34:19.502Z,27.8
2018-08-11T12:35:20.899Z,27.9
2018-08-11T12:36:22.420Z,27.9
2018-08-11T12:37:23.796Z,28.0
2018-08-11T12:38:25.286Z,28.0
2018-08-11T12:39:26.705Z,28.0
2018-08-11T12:40:29.535Z,28.0
2018-08-11T12:41:32.587Z,28.0
2018-08-11T12:42:36.432Z,28.0
2018-08-11T12:43:42.353Z,28.0
2018-08-11T12:44:44.462Z,28.0
2018-08-11T12:45:47.465Z,28.1
2018-08-11T12:46:51.425Z,28.0
2018-08-11T12:47:52.818Z,28.0
2018-08-11T12:48:54.213Z,28.1
2018-08-11T12:49:55.627Z,28.0
2018-08-11T12:50:57.020Z,28.0
2018-08-11T12:51:58.417Z,28.0
2018-08-11T12:52:59.813Z,28.1
2018-08-11T12:54:01.272Z,28.1
2018-08-11T12:55:02.687Z,28.2
2018-08-11T12:56:04.075Z,28.2
2018-08-11T12:57:05.457Z,28.2
2018-08-11T12:58:06.864Z,28.2
2018-08-11T12:59:08.247Z,28.2
2018-08-11T13:00:09.642Z,28.1
2018-08-11T13:01:11.049Z,28.2
2018-08-11T13:02:12.423Z,28.1
2018-08-11T13:03:13.999Z,28.0
2018-08-11T13:04:15.401Z,28.0
2018-08-11T13:05:16.775Z,28.0
2018-08-11T13:06:18.170Z,28.0
2018-08-11T13:07:21.917Z,28.0
2018-08-11T13:08:23.340Z,28.1
2018-08-11T13:09:24.756Z,28.1
2018-08-11T13:10:26.710Z,28.1
2018-08-11T13:11:33.670Z,28.1
2018-08-11T13:12:35.075Z,28.1
2018-08-11T13:13:36.460Z,28.0
2018-08-11T13:14:37.851Z,28.0
2018-08-11T13:15:39.257Z,28.1
2018-08-11T13:16:40.672Z,28.1
2018-08-11T13:17:42.073Z,28.1
2018-08-11T13:18:44.792Z,28.1
2018-08-11T13:19:47.012Z,28.1
2018-08-11T13:20:50.164Z,28.0
2018-08-11T13:21:51.485Z,28.0
2018-08-11T13:22:52.903Z,28.0
2018-08-11T13:23:54.306Z,28.0
2018-08-11T13:24:55.809Z,28.0
2018-08-11T13:25:57.191Z,28.0
2018-08-11T13:26:58.582Z,28.0
2018-08-11T13:27:59.996Z,27.9
2018-08-11T13:29:01.381Z,28.0
2018-08-11T13:30:04.015Z,28.0
2018-08-11T13:31:05.411Z,28.1
2018-08-11T13:32:09.419Z,28.0
2018-08-11T13:33:11.861Z,28.1
2018-08-11T13:34:13.867Z,28.0
2018-08-11T13:35:15.288Z,28.0
2018-08-11T13:36:16.667Z,28.1
2018-08-11T13:37:18.045Z,28.1
2018-08-11T13:38:19.420Z,28.0
2018-08-11T13:39:20.808Z,28.0
2018-08-11T13:40:22.207Z,28.0
2018-08-11T13:41:23.617Z,28.1
2018-08-11T13:42:25.025Z,28.1